Main page
METAR-TAF:

METAR-TAF

Airports :

Mönchengladbach Airport

Mönchengladbach, Germany

latitude: 51-13-49N, longitude: 006-30-16E, elevation: 38 m

Current weather observation

The report was made 50 minutes ago, at 12:20 UTC
Wind 6 kt from the West, varying between South/Southwest and Northwest
Temperature 22°C
Humidity 60%
Pressure 1021 hPa
Visibility 10 km or more
Scattered clouds at a height of 3700 ft
Scattered clouds at a height of 4800 ft

METAR: EDLN 171220Z 27006KT 210V310 9999 SCT037 SCT048 22/14 Q1021

Time: 15:10 (13:10 UTC)

Forecast

The report was made 2 hours and 10 minutes ago, at 11:00 UTC
Forecast valid from 17 at 12 UTC to 17 at 21 UTC
Wind 7 kt from the West/Southwest
Visibility 10 km or more
Broken clouds at a height of 3000 ft
Becoming
from 17 at 12 UTC to 17 at 15 UTC
Wind 6 kt from the West/Northwest
Becoming
from 17 at 17 UTC to 17 at 20 UTC
Wind 2 kt from variable directions

TAF: EDLN 171100Z 1712/1721 24007KT 9999 BKN030 BECMG 1712/1715 30006KT BECMG 1717/1720 VRB02KT

Weather observations and forecasts of more than 4000 airports (METAR and TAF reports).

The available stations are represented by yellow and red dots on the map.

Hover mouse over dot to see the name of the station.

Then click to see weather observations and forecasts.

To change the map : click on the green buttons with a black cross to zoom in, on the green button with a dash to zoom out, or on the green arrows for adjacent maps.


METAR-TAF: